Time;durP1;ratioP1;P1;durP2;ratioP2;P2;SDS_P1;SDS_P2;PMS_P1;PMS_P2;Temp;Humidity;BMP_temperature;BMP_pressure;BME280_temperature;BME280_humidity;BME280_pressure;Samples;Min_cycle;Max_cycle;Signal;HPM_P1;HPM_P2
2022/09/06 00:01:10;;;;;;;4.05;2.00;;;11.10;76.70;;;;;;5095731;28;20081;-74
2022/09/06 00:03:36;;;;;;;5.35;2.00;;;11.00;76.70;;;;;;5094357;28;20389;-82
2022/09/06 00:06:11;;;;;;;3.58;1.60;;;11.00;76.70;;;;;;5095691;28;20020;-82
2022/09/06 00:08:37;;;;;;;4.35;1.83;;;11.00;76.60;;;;;;5095671;28;20024;-82
2022/09/06 00:11:03;;;;;;;2.88;2.58;;;11.00;76.70;;;;;;5095728;28;20052;-74
2022/09/06 00:13:28;;;;;;;3.15;1.98;;;11.00;76.90;;;;;;5095591;28;20482;-82
2022/09/06 00:15:54;;;;;;;1.90;1.60;;;10.90;77.20;;;;;;5094188;28;20478;-75
2022/09/06 00:18:20;;;;;;;2.65;1.60;;;10.90;77.30;;;;;;5095456;28;20055;-74
2022/09/06 00:20:46;;;;;;;1.58;1.42;;;10.90;77.60;;;;;;5093965;28;20382;-75
2022/09/06 00:23:12;;;;;;;5.13;1.75;;;10.90;78.00;;;;;;5095484;28;20085;-75
2022/09/06 00:25:37;;;;;;;3.97;2.08;;;10.80;78.10;;;;;;5095300;28;20443;-83
2022/09/06 00:28:04;;;;;;;2.22;1.95;;;10.80;78.20;;;;;;5094092;28;20126;-82
2022/09/06 00:30:31;;;;;;;3.90;1.98;;;10.80;78.30;;;;;;5093932;28;20028;-74
2022/09/06 00:32:57;;;;;;;2.78;1.60;;;10.80;78.70;;;;;;5095247;28;20020;-82
2022/09/06 00:35:24;;;;;;;5.00;2.00;;;10.80;79.20;;;;;;5093700;28;20519;-74
2022/09/06 00:37:54;;;;;;;3.72;1.65;;;10.80;79.30;;;;;;5093953;28;20012;-74
2022/09/06 00:40:20;;;;;;;1.77;1.52;;;10.70;79.50;;;;;;5093626;28;20028;-74
2022/09/06 00:42:45;;;;;;;4.53;1.70;;;10.70;80.20;;;;;;5094977;28;20055;-81
2022/09/06 00:45:13;;;;;;;2.42;1.70;;;10.70;80.10;;;;;;5094848;28;20027;-73
2022/09/06 00:47:41;;;;;;;2.63;1.70;;;10.60;80.30;;;;;;5094944;28;20378;-81
2022/09/06 00:50:08;;;;;;;2.63;1.70;;;10.60;80.50;;;;;;5093480;28;20024;-73
2022/09/06 00:52:35;;;;;;;2.83;1.67;;;10.60;80.70;;;;;;5110536;28;20098;-81
2022/09/06 00:55:01;;;;;;;3.17;1.20;;;10.60;80.60;;;;;;5093372;28;20020;-73
2022/09/06 00:57:29;;;;;;;4.07;1.80;;;10.60;81.00;;;;;;5093405;28;20119;-81
2022/09/06 00:59:55;;;;;;;3.05;1.88;;;10.60;81.20;;;;;;5094599;28;20016;-81
2022/09/06 01:02:21;;;;;;;2.80;1.60;;;10.50;81.40;;;;;;5094482;28;20032;-75
2022/09/06 01:04:48;;;;;;;2.05;1.70;;;10.50;81.10;;;;;;5094572;28;20089;-73
2022/09/06 01:07:38;;;;;;;3.85;1.65;;;10.50;81.20;;;;;;5093218;28;20028;-74
2022/09/06 01:10:27;;;;;;;2.38;1.75;;;10.50;81.40;;;;;;5094470;28;20035;-81
2022/09/06 01:13:15;;;;;;;2.83;1.70;;;10.50;81.40;;;;;;5094351;28;20050;-74
2022/09/06 01:16:09;;;;;;;3.67;1.98;;;10.50;81.60;;;;;;5093912;28;20103;-73
2022/09/06 01:18:47;;;;;;;3.13;1.60;;;10.50;81.80;;;;;;5092999;28;20039;-81
2022/09/06 01:21:29;;;;;;;1.75;1.60;;;10.50;82.10;;;;;;5094270;28;20035;-73
2022/09/06 01:24:24;;;;;;;1.77;1.60;;;10.40;82.10;;;;;;5092907;28;20016;-73
2022/09/06 01:27:01;;;;;;;2.00;1.80;;;10.40;82.30;;;;;;5094105;28;20500;-82
2022/09/06 01:29:30;;;;;;;3.55;1.63;;;10.40;82.40;;;;;;5094334;28;20362;-83
2022/09/06 01:32:06;;;;;;;2.60;1.88;;;10.40;82.70;;;;;;5094083;28;20477;-74
2022/09/06 01:34:42;;;;;;;3.65;1.80;;;10.40;83.10;;;;;;5092753;28;20024;-74
2022/09/06 01:37:12;;;;;;;2.58;1.67;;;10.40;83.10;;;;;;5094083;28;20061;-83
2022/09/06 01:39:40;;;;;;;2.58;1.88;;;10.40;83.60;;;;;;5109721;28;20024;-74
2022/09/06 01:42:13;;;;;;;5.60;2.00;;;10.30;83.90;;;;;;5093886;28;20064;-74
2022/09/06 01:44:45;;;;;;;3.35;1.83;;;10.30;83.90;;;;;;5092445;28;20107;-83
2022/09/06 01:47:32;;;;;;;5.18;1.90;;;10.30;83.90;;;;;;5092348;28;20016;-82
2022/09/06 01:50:13;;;;;;;3.10;1.50;;;10.30;84.00;;;;;;5093767;28;20024;-82
2022/09/06 01:53:09;;;;;;;2.45;1.48;;;10.30;83.60;;;;;;5093896;28;20074;-83
2022/09/06 01:55:50;;;;;;;3.05;1.67;;;10.30;83.40;;;;;;5093699;28;20377;-73
2022/09/06 01:58:32;;;;;;;2.13;1.92;;;10.30;83.60;;;;;;5092379;28;20032;-81
2022/09/06 02:01:29;;;;;;;1.70;1.60;;;10.30;83.80;;;;;;5092346;28;20222;-82
2022/09/06 02:04:20;;;;;;;2.00;1.58;;;10.30;84.40;;;;;;5082813;28;20105;-73
2022/09/06 02:06:53;;;;;;;8.73;1.92;;;10.30;84.30;;;;;;5093649;28;20048;-81
2022/09/06 02:09:22;;;;;;;2.75;1.45;;;10.30;84.70;;;;;;5092323;28;20409;-73
2022/09/06 02:11:53;;;;;;;3.40;2.13;;;10.30;84.80;;;;;;5093470;28;20024;-81
2022/09/06 02:14:37;;;;;;;4.25;1.88;;;10.20;84.60;;;;;;5092102;28;20017;-73
2022/09/06 02:17:04;;;;;;;7.15;2.03;;;10.30;84.70;;;;;;5093363;28;20070;-81
2022/09/06 02:19:43;;;;;;;4.40;2.22;;;10.20;84.90;;;;;;5093404;28;20020;-74
2022/09/06 02:22:13;;;;;;;2.63;1.75;;;10.30;84.70;;;;;;5092012;28;20489;-82
2022/09/06 02:24:40;;;;;;;3.40;2.55;;;10.30;84.80;;;;;;5093117;28;20024;-83
2022/09/06 02:27:07;;;;;;;1.55;1.40;;;10.20;84.80;;;;;;5091338;28;20119;-74
2022/09/06 02:29:34;;;;;;;2.03;1.70;;;10.20;85.30;;;;;;5093226;28;20020;-74
2022/09/06 02:32:10;;;;;;;2.28;2.00;;;10.20;85.30;;;;;;5093194;28;20099;-83
2022/09/06 02:34:39;;;;;;;3.05;1.85;;;10.20;85.70;;;;;;5091848;28;20478;-83
2022/09/06 02:37:06;;;;;;;4.68;1.63;;;10.10;85.90;;;;;;5091913;28;20474;-82
2022/09/06 02:39:32;;;;;;;2.45;1.80;;;10.10;86.40;;;;;;5091807;28;20032;-83
2022/09/06 02:41:59;;;;;;;2.75;1.73;;;10.10;87.10;;;;;;5091774;28;20053;-75
2022/09/06 02:44:25;;;;;;;3.13;2.10;;;10.00;87.20;;;;;;5092954;28;20044;-82
2022/09/06 02:46:50;;;;;;;2.88;1.85;;;10.00;87.10;;;;;;5093059;28;20055;-75
2022/09/06 02:49:16;;;;;;;2.88;2.03;;;10.00;87.40;;;;;;5092906;28;20412;-73
2022/09/06 02:51:42;;;;;;;2.85;1.77;;;10.00;87.70;;;;;;5091683;28;20106;-74
2022/09/06 02:54:07;;;;;;;5.05;2.38;;;10.00;87.90;;;;;;5092991;28;20039;-81
2022/09/06 02:56:35;;;;;;;2.75;2.10;;;9.90;88.00;;;;;;5093085;28;20028;-80
2022/09/06 02:59:04;;;;;;;4.28;2.22;;;10.00;88.40;;;;;;5092964;28;20381;-74
2022/09/06 03:01:30;;;;;;;3.42;1.70;;;10.00;87.80;;;;;;5091633;28;20085;-74
2022/09/06 03:03:56;;;;;;;3.42;2.20;;;10.00;87.90;;;;;;5091430;28;20044;-73
2022/09/06 03:06:22;;;;;;;2.95;2.13;;;10.00;87.80;;;;;;5091755;28;20533;-80
2022/09/06 03:08:48;;;;;;;3.15;2.28;;;10.00;88.20;;;;;;5091599;28;20028;-81
2022/09/06 03:11:13;;;;;;;3.17;1.90;;;9.90;88.40;;;;;;5093005;28;20385;-82
2022/09/06 03:13:40;;;;;;;4.32;1.90;;;9.90;89.10;;;;;;5091336;28;20031;-73
2022/09/06 03:16:05;;;;;;;3.03;1.70;;;9.90;89.50;;;;;;5092792;28;20119;-74
2022/09/06 03:18:32;;;;;;;3.92;1.88;;;9.80;89.60;;;;;;5092762;28;20052;-73
2022/09/06 03:20:58;;;;;;;3.70;1.83;;;9.80;90.10;;;;;;5092793;28;20366;-74
2022/09/06 03:23:26;;;;;;;6.40;2.15;;;9.70;90.80;;;;;;5092570;28;20393;-83
2022/09/06 03:25:52;;;;;;;3.58;1.90;;;9.70;91.20;;;;;;5092775;28;20070;-75
2022/09/06 03:28:18;;;;;;;3.85;2.30;;;9.70;92.00;;;;;;5092855;28;20020;-82
2022/09/06 03:30:45;;;;;;;4.93;1.90;;;9.70;92.50;;;;;;5091396;28;20032;-83
2022/09/06 03:33:11;;;;;;;5.55;2.42;;;9.60;93.10;;;;;;5092617;28;20035;-74
2022/09/06 03:35:37;;;;;;;2.13;2.00;;;9.60;93.60;;;;;;5092681;28;20386;-83
2022/09/06 03:38:04;;;;;;;4.78;2.38;;;9.50;94.00;;;;;;5093834;28;20020;-74
2022/09/06 03:40:29;;;;;;;3.35;2.30;;;9.50;94.90;;;;;;5096355;28;20035;-83
2022/09/06 03:42:55;;;;;;;5.22;2.90;;;9.50;95.40;;;;;;5096149;28;20036;-82
2022/09/06 03:45:21;;;;;;;5.55;2.30;;;9.40;96.10;;;;;;5096079;28;20024;-73
2022/09/06 03:47:47;;;;;;;2.47;2.28;;;9.40;96.20;;;;;;5099067;28;20043;-82
2022/09/06 03:50:12;;;;;;;3.85;2.20;;;9.40;96.50;;;;;;5096020;28;20099;-73
2022/09/06 03:52:39;;;;;;;4.60;2.10;;;9.40;96.70;;;;;;5095891;28;20107;-74
2022/09/06 03:55:05;;;;;;;4.45;2.17;;;9.40;97.00;;;;;;5094592;28;20024;-74
2022/09/06 03:57:31;;;;;;;4.72;2.53;;;9.40;97.60;;;;;;5095707;28;20028;-75
2022/09/06 03:59:57;;;;;;;3.45;2.35;;;9.40;97.90;;;;;;5095808;28;20024;-74
2022/09/06 04:02:22;;;;;;;3.78;2.05;;;9.40;98.10;;;;;;5095797;28;20040;-74
2022/09/06 04:04:48;;;;;;;3.30;2.28;;;9.40;98.10;;;;;;5095381;28;20047;-81
2022/09/06 04:07:13;;;;;;;2.83;2.00;;;9.30;98.60;;;;;;5095591;28;20020;-75
2022/09/06 04:09:39;;;;;;;4.63;2.03;;;9.30;99.00;;;;;;5094557;28;20385;-83
2022/09/06 04:12:05;;;;;;;3.67;2.50;;;9.30;99.20;;;;;;5094424;28;20031;-82
2022/09/06 04:14:30;;;;;;;6.40;2.80;;;9.30;99.90;;;;;;5095387;28;20028;-83
2022/09/06 04:16:56;;;;;;;3.67;2.33;;;9.30;99.90;;;;;;5095566;28;20533;-82
2022/09/06 04:19:22;;;;;;;4.35;2.65;;;9.30;99.90;;;;;;5093219;28;20020;-83
2022/09/06 04:21:48;;;;;;;3.97;2.50;;;9.30;99.90;;;;;;5091978;28;20059;-75
2022/09/06 04:24:14;;;;;;;3.03;2.40;;;9.30;99.90;;;;;;5092086;28;20056;-83
2022/09/06 04:26:39;;;;;;;3.95;2.10;;;9.30;99.90;;;;;;5093663;28;20027;-75
2022/09/06 04:29:05;;;;;;;4.70;2.72;;;9.30;99.90;;;;;;5092822;28;20016;-82
2022/09/06 04:31:31;;;;;;;2.20;2.00;;;9.30;99.90;;;;;;5093132;28;20024;-82
2022/09/06 04:33:56;;;;;;;2.80;2.38;;;9.30;99.90;;;;;;5092997;28;20053;-83
2022/09/06 04:36:22;;;;;;;4.97;2.60;;;9.40;99.90;;;;;;5094877;28;20073;-76
2022/09/06 04:38:48;;;;;;;4.28;2.28;;;9.40;99.90;;;;;;5093646;28;20424;-75
2022/09/06 04:41:15;;;;;;;11.07;3.42;;;9.50;99.90;;;;;;5093999;28;20481;-82
2022/09/06 04:43:41;;;;;;;3.45;1.95;;;9.60;99.90;;;;;;5094892;28;20031;-75
2022/09/06 04:46:24;;;;;;;2.38;2.03;;;9.60;98.90;;;;;;5110598;28;20028;-75
2022/09/06 04:48:51;;;;;;;7.53;2.60;;;9.70;97.20;;;;;;5094704;28;20024;-76
2022/09/06 04:51:17;;;;;;;3.42;2.50;;;9.80;96.60;;;;;;5094511;28;20285;-84
2022/09/06 04:53:43;;;;;;;4.65;2.10;;;9.90;95.50;;;;;;5094382;28;20032;-83
2022/09/06 04:56:20;;;;;;;3.35;2.08;;;10.10;94.70;;;;;;5093143;28;20035;-76
2022/09/06 04:58:47;;;;;;;3.85;2.10;;;10.10;93.60;;;;;;5093387;28;20055;-83
2022/09/06 05:01:13;;;;;;;4.88;2.30;;;10.20;93.10;;;;;;5094616;28;20082;-75
2022/09/06 05:03:39;;;;;;;6.70;2.28;;;10.30;92.10;;;;;;5094515;28;20040;-74
2022/09/06 05:06:13;;;;;;;4.22;1.95;;;10.40;91.20;;;;;;5094684;28;20466;-74
2022/09/06 05:08:40;;;;;;;4.78;2.42;;;10.50;90.20;;;;;;5093144;28;20089;-83
2022/09/06 05:11:07;;;;;;;3.42;2.22;;;10.60;89.30;;;;;;5094446;28;20366;-82
2022/09/06 05:13:33;;;;;;;5.57;2.28;;;10.70;88.60;;;;;;5094410;28;20020;-83
2022/09/06 05:16:02;;;;;;;4.47;2.15;;;10.80;87.50;;;;;;5094291;28;20059;-75
2022/09/06 05:18:28;;;;;;;4.28;2.13;;;10.90;87.10;;;;;;5094340;28;20466;-81
2022/09/06 05:20:54;;;;;;;5.15;2.78;;;11.00;85.50;;;;;;5095801;28;20023;-83
2022/09/06 05:23:20;;;;;;;2.35;1.98;;;11.10;84.80;;;;;;5082950;28;20367;-85
2022/09/06 05:25:47;;;;;;;4.28;2.10;;;11.20;83.20;;;;;;5092888;28;20020;-83
2022/09/06 05:28:13;;;;;;;3.35;2.08;;;11.30;83.10;;;;;;5091843;28;20397;-84
2022/09/06 05:30:40;;;;;;;2.20;1.85;;;11.40;82.80;;;;;;5091581;28;20028;-83
2022/09/06 05:33:07;;;;;;;3.70;2.33;;;11.50;82.30;;;;;;5093021;28;20548;-85
2022/09/06 05:35:32;;;;;;;5.15;2.30;;;11.60;82.40;;;;;;5091853;28;20028;-84
2022/09/06 05:37:58;;;;;;;5.75;2.08;;;11.70;81.90;;;;;;5090743;28;20064;-83
2022/09/06 05:40:24;;;;;;;4.20;2.13;;;11.80;80.80;;;;;;5092987;28;20024;-75
2022/09/06 05:42:49;;;;;;;6.80;2.20;;;12.00;80.30;;;;;;5090880;28;20048;-75
2022/09/06 05:45:15;;;;;;;6.35;2.70;;;12.10;79.00;;;;;;5091434;28;20012;-75
2022/09/06 05:47:41;;;;;;;4.15;2.25;;;12.20;78.70;;;;;;5086074;28;20489;-82
2022/09/06 05:50:07;;;;;;;4.82;2.10;;;12.30;77.30;;;;;;5092648;28;20020;-73
2022/09/06 05:52:34;;;;;;;2.42;1.90;;;12.40;77.40;;;;;;5091304;28;20028;-73
2022/09/06 05:55:00;;;;;;;5.28;2.53;;;12.50;77.40;;;;;;5090580;28;20032;-72
2022/09/06 05:57:26;;;;;;;3.55;2.22;;;12.60;76.40;;;;;;5092525;28;20027;-73
2022/09/06 05:59:54;;;;;;;5.80;2.20;;;12.70;76.20;;;;;;5092438;28;20024;-73
2022/09/06 06:02:21;;;;;;;5.18;2.25;;;12.80;75.60;;;;;;5090230;28;20040;-73
2022/09/06 06:04:47;;;;;;;3.70;2.58;;;13.00;75.00;;;;;;5092385;28;20119;-73
2022/09/06 06:07:13;;;;;;;4.30;2.50;;;13.10;74.00;;;;;;5090328;28;20075;-73
2022/09/06 06:09:40;;;;;;;4.78;2.55;;;13.30;74.10;;;;;;5084811;28;20103;-75
2022/09/06 06:12:06;;;;;;;7.50;2.10;;;13.40;72.80;;;;;;5095991;28;20039;-74
2022/09/06 06:14:32;;;;;;;3.88;3.22;;;13.50;71.40;;;;;;5092359;28;20028;-74
2022/09/06 06:16:58;;;;;;;3.25;2.35;;;13.60;70.60;;;;;;5090391;28;20394;-81
2022/09/06 06:19:25;;;;;;;5.40;2.40;;;13.70;69.90;;;;;;5092374;28;20073;-81
2022/09/06 06:21:51;;;;;;;5.13;2.28;;;13.80;69.80;;;;;;5090594;28;20037;-81
2022/09/06 06:24:17;;;;;;;4.18;2.47;;;14.00;70.10;;;;;;5091595;28;20035;-82
2022/09/06 06:26:42;;;;;;;4.78;2.40;;;14.10;68.60;;;;;;5092098;28;20131;-82
2022/09/06 06:29:08;;;;;;;4.85;2.30;;;14.20;69.20;;;;;;5091721;28;20099;-83
2022/09/06 06:31:35;;;;;;;3.03;2.67;;;14.30;68.50;;;;;;5091885;28;20514;-82
2022/09/06 06:34:04;;;;;;;5.47;2.45;;;14.40;68.70;;;;;;5091377;28;20028;-82
2022/09/06 06:36:32;;;;;;;5.00;2.83;;;14.40;67.30;;;;;;5075325;28;20016;-82
2022/09/06 06:38:59;;;;;;;5.72;2.45;;;14.60;67.70;;;;;;5093120;28;20028;-82
2022/09/06 06:41:27;;;;;;;3.95;2.17;;;14.60;67.20;;;;;;5091648;28;20032;-74
2022/09/06 06:43:58;;;;;;;8.75;2.88;;;14.70;67.20;;;;;;5093005;28;20050;-83
2022/09/06 06:46:26;;;;;;;3.42;2.28;;;14.80;66.70;;;;;;5093089;28;20034;-83
2022/09/06 06:48:56;;;;;;;4.80;2.35;;;15.00;66.80;;;;;;5093132;28;20462;-74
2022/09/06 06:51:30;;;;;;;6.30;2.20;;;15.10;66.00;;;;;;5091617;28;20507;-74
2022/09/06 06:53:56;;;;;;;5.40;2.38;;;15.20;64.90;;;;;;5093000;28;20013;-83
2022/09/06 06:56:31;;;;;;;5.35;2.05;;;15.30;65.50;;;;;;5092881;28;20047;-73
2022/09/06 06:58:59;;;;;;;3.22;2.13;;;15.30;64.50;;;;;;5090200;28;20385;-74
2022/09/06 07:01:27;;;;;;;4.47;3.28;;;15.50;64.80;;;;;;5090848;28;20029;-74
2022/09/06 07:03:53;;;;;;;4.05;2.33;;;15.70;63.70;;;;;;5092053;28;20068;-74
2022/09/06 07:06:19;;;;;;;3.92;2.55;;;15.80;63.70;;;;;;5092061;28;20028;-74
2022/09/06 07:08:45;;;;;;;3.88;2.47;;;15.90;63.50;;;;;;5088105;28;20070;-83
2022/09/06 07:11:13;;;;;;;4.25;2.15;;;16.00;63.00;;;;;;5092115;28;20493;-74
2022/09/06 07:13:40;;;;;;;5.40;2.25;;;16.10;62.60;;;;;;5093854;28;20485;-83
2022/09/06 07:16:14;;;;;;;3.60;2.28;;;16.20;62.70;;;;;;5096794;28;20024;-84
2022/09/06 07:18:41;;;;;;;5.47;2.22;;;16.30;61.20;;;;;;5096871;28;20055;-75
2022/09/06 07:21:15;;;;;;;8.70;3.47;;;16.50;61.60;;;;;;5096191;28;20099;-84
2022/09/06 07:23:41;;;;;;;3.85;2.03;;;16.70;60.20;;;;;;5102600;28;20051;-75
2022/09/06 07:26:12;;;;;;;5.25;2.00;;;16.80;60.30;;;;;;5096683;28;20024;-75
2022/09/06 07:28:38;;;;;;;3.80;1.95;;;16.80;58.50;;;;;;5096669;28;20393;-75
2022/09/06 07:31:04;;;;;;;4.82;1.90;;;16.70;58.40;;;;;;5096426;28;20020;-76
2022/09/06 07:33:29;;;;;;;3.90;2.30;;;16.70;58.60;;;;;;5096469;28;20097;-85
2022/09/06 07:36:00;;;;;;;3.78;2.03;;;16.80;58.60;;;;;;5096311;28;20024;-75
2022/09/06 07:38:30;;;;;;;3.45;2.20;;;16.90;58.50;;;;;;5096259;28;20099;-85
2022/09/06 07:40:58;;;;;;;3.55;2.08;;;16.90;58.20;;;;;;5096195;28;20091;-84
2022/09/06 07:43:25;;;;;;;5.85;2.05;;;16.90;57.90;;;;;;5093209;28;20024;-83
2022/09/06 07:46:02;;;;;;;4.07;1.83;;;16.90;57.00;;;;;;5094008;28;20028;-83
2022/09/06 07:48:30;;;;;;;3.20;1.73;;;17.10;57.50;;;;;;5111318;28;20474;-84
2022/09/06 07:51:02;;;;;;;5.18;1.80;;;17.10;56.50;;;;;;5095367;28;20082;-84
2022/09/06 07:53:28;;;;;;;3.85;1.77;;;17.20;55.90;;;;;;5090251;28;20028;-85
2022/09/06 07:55:54;;;;;;;2.63;1.70;;;17.20;55.20;;;;;;5095207;28;20055;-82
2022/09/06 07:58:20;;;;;;;3.28;1.50;;;17.40;55.30;;;;;;5094684;28;20107;-83
2022/09/06 08:00:45;;;;;;;6.28;1.80;;;17.50;54.80;;;;;;5094660;28;20549;-82
2022/09/06 08:03:11;;;;;;;5.13;1.92;;;17.60;54.10;;;;;;5094368;28;20024;-84
2022/09/06 08:05:37;;;;;;;8.73;2.03;;;17.70;54.10;;;;;;5094340;28;20119;-76
2022/09/06 08:08:03;;;;;;;4.07;2.00;;;17.70;53.50;;;;;;5095687;28;20020;-76
2022/09/06 08:10:28;;;;;;;3.55;1.63;;;17.80;53.00;;;;;;5094741;28;20024;-76
2022/09/06 08:12:54;;;;;;;5.78;1.92;;;17.80;52.60;;;;;;5095389;28;20020;-76
2022/09/06 08:15:20;;;;;;;6.88;1.63;;;17.90;52.90;;;;;;5095491;28;20101;-83
2022/09/06 08:17:50;;;;;;;2.38;1.40;;;17.90;52.60;;;;;;5095424;28;20050;-83
2022/09/06 08:20:16;;;;;;;3.00;1.58;;;18.10;52.80;;;;;;5095488;28;20028;-84
2022/09/06 08:22:42;;;;;;;4.70;1.70;;;18.30;52.70;;;;;;5093788;28;20585;-76
2022/09/06 08:25:09;;;;;;;4.60;1.70;;;18.40;52.10;;;;;;5094302;28;20024;-76
2022/09/06 08:27:35;;;;;;;7.88;1.40;;;18.60;51.70;;;;;;5092745;28;20362;-85
2022/09/06 08:30:00;;;;;;;3.92;1.98;;;18.50;50.60;;;;;;5110398;28;20138;-84
2022/09/06 08:32:26;;;;;;;4.80;1.90;;;18.50;50.10;;;;;;5095274;28;20024;-85
2022/09/06 08:34:52;;;;;;;3.85;2.05;;;18.70;50.30;;;;;;5093917;28;20042;-76
2022/09/06 08:37:17;;;;;;;7.22;1.60;;;18.70;50.60;;;;;;5095159;28;20492;-84
2022/09/06 08:39:43;;;;;;;2.67;1.80;;;18.60;49.80;;;;;;5095187;28;20501;-84
2022/09/06 08:42:11;;;;;;;3.53;1.80;;;18.70;50.10;;;;;;5091638;28;20542;-77
2022/09/06 08:44:48;;;;;;;3.13;1.30;;;18.60;49.40;;;;;;5108570;28;20030;-86
2022/09/06 08:47:15;;;;;;;5.85;1.27;;;18.80;49.90;;;;;;5091755;28;20455;-86
2022/09/06 08:49:45;;;;;;;6.05;1.27;;;18.70;49.10;;;;;;5092018;28;20047;-86
2022/09/06 08:52:14;;;;;;;3.95;1.42;;;18.90;49.80;;;;;;5091937;28;20081;-76
2022/09/06 08:55:19;;;;;;;5.38;1.20;;;18.90;49.00;;;;;;5093126;28;20024;-76
2022/09/06 08:58:06;;;;;;;3.97;1.45;;;18.90;48.30;;;;;;5093685;28;20385;-75
2022/09/06 09:00:34;;;;;;;2.70;1.40;;;18.90;48.70;;;;;;5094825;28;20052;-85
2022/09/06 09:03:15;;;;;;;4.18;1.70;;;19.00;48.30;;;;;;5093311;28;20146;-75
2022/09/06 09:05:41;;;;;;;3.15;1.60;;;18.90;48.10;;;;;;5093489;28;20476;-76
2022/09/06 09:08:22;;;;;;;3.35;1.58;;;18.90;48.20;;;;;;5093192;28;20043;-85
2022/09/06 09:11:00;;;;;;;2.72;1.00;;;19.00;48.20;;;;;;5094828;28;20441;-86
2022/09/06 09:13:39;;;;;;;2.67;1.20;;;19.10;47.40;;;;;;5094346;28;20024;-75
2022/09/06 09:16:05;;;;;;;1.38;1.27;;;19.00;47.10;;;;;;5093258;28;20031;-86
2022/09/06 09:18:35;;;;;;;3.70;1.30;;;19.20;47.60;;;;;;5093508;28;20028;-75
2022/09/06 09:21:02;;;;;;;1.55;1.38;;;19.10;47.10;;;;;;5094369;28;20016;-85
2022/09/06 09:23:29;;;;;;;2.88;1.02;;;19.30;47.50;;;;;;5099021;28;20020;-86
2022/09/06 09:26:01;;;;;;;2.50;1.15;;;19.20;47.20;;;;;;5094220;28;20377;-87
2022/09/06 09:28:26;;;;;;;3.78;1.30;;;19.30;46.70;;;;;;5092729;28;20020;-76
2022/09/06 09:30:55;;;;;;;2.33;1.00;;;19.30;47.20;;;;;;5094268;28;20016;-85
2022/09/06 09:33:22;;;;;;;4.38;1.48;;;19.30;47.20;;;;;;5094188;28;20023;-76
2022/09/06 09:35:48;;;;;;;3.50;0.77;;;19.50;48.00;;;;;;5092696;28;20103;-86
2022/09/06 09:38:21;;;;;;;3.17;0.90;;;19.50;46.50;;;;;;5094055;28;20102;-85
2022/09/06 09:41:07;;;;;;;2.97;1.00;;;19.60;46.80;;;;;;5092753;28;20028;-76
2022/09/06 09:43:37;;;;;;;3.25;0.98;;;19.60;46.60;;;;;;5093835;28;20032;-86
2022/09/06 09:46:23;;;;;;;5.50;1.40;;;19.80;46.90;;;;;;5092905;28;20465;-87
2022/09/06 09:49:07;;;;;;;2.45;1.10;;;19.80;46.20;;;;;;5093941;28;20101;-77
2022/09/06 09:51:40;;;;;;;1.85;0.98;;;19.80;45.90;;;;;;5093891;28;20027;-87
2022/09/06 09:54:09;;;;;;;1.15;1.00;;;19.80;46.40;;;;;;5092668;28;20020;-76
2022/09/06 09:56:57;;;;;;;1.38;1.15;;;19.90;46.30;;;;;;5093865;28;20031;-77
2022/09/06 09:59:40;;;;;;;1.73;1.35;;;19.90;46.10;;;;;;5091991;28;20481;-87
2022/09/06 10:02:29;;;;;;;3.13;1.02;;;20.00;46.60;;;;;;5093723;28;20129;-76
2022/09/06 10:05:14;;;;;;;4.90;1.10;;;19.90;46.50;;;;;;5092060;28;20094;-86
2022/09/06 10:07:46;;;;;;;1.50;1.17;;;19.90;46.40;;;;;;5092703;28;20055;-86
2022/09/06 10:10:14;;;;;;;0.93;0.93;;;20.00;47.20;;;;;;5093707;28;20516;-76
2022/09/06 10:12:41;;;;;;;5.07;1.27;;;20.00;46.70;;;;;;5092315;28;20028;-76
2022/09/06 10:15:30;;;;;;;1.27;0.98;;;20.10;46.80;;;;;;5093373;28;20024;-76
2022/09/06 10:17:56;;;;;;;3.40;1.85;;;20.10;46.90;;;;;;5092184;28;20063;-76
2022/09/06 10:20:26;;;;;;;1.38;1.10;;;20.10;46.70;;;;;;5093437;28;20059;-76
2022/09/06 10:23:08;;;;;;;2.50;1.23;;;19.90;46.40;;;;;;5093417;28;20066;-86
2022/09/06 10:25:59;;;;;;;1.40;1.25;;;19.70;46.40;;;;;;5109085;28;20020;-76
2022/09/06 10:28:29;;;;;;;3.30;1.35;;;19.70;46.40;;;;;;5093178;28;20024;-76
2022/09/06 10:30:55;;;;;;;1.98;1.10;;;19.80;46.60;;;;;;5093316;28;20470;-87
2022/09/06 10:33:45;;;;;;;1.73;1.20;;;19.90;46.80;;;;;;5092980;28;20103;-85
2022/09/06 10:36:18;;;;;;;2.90;1.52;;;19.90;46.60;;;;;;5079064;28;20020;-88
2022/09/06 10:39:01;;;;;;;1.85;1.35;;;19.90;46.30;;;;;;5090765;28;20040;-86
2022/09/06 10:41:38;;;;;;;2.13;1.27;;;20.00;46.20;;;;;;5085569;28;20024;-87
2022/09/06 10:44:17;;;;;;;1.42;1.27;;;20.10;45.90;;;;;;5085332;28;20040;-87
2022/09/06 10:46:44;;;;;;;3.03;1.48;;;20.10;45.80;;;;;;5090910;28;20024;-88
2022/09/06 10:49:15;;;;;;;1.63;1.10;;;19.90;45.30;;;;;;5093558;28;20392;-88
2022/09/06 10:51:54;;;;;;;1.50;1.23;;;19.90;45.30;;;;;;5095043;28;20055;-88
2022/09/06 10:54:22;;;;;;;2.55;1.58;;;19.90;45.50;;;;;;5095251;28;20099;-87
2022/09/06 10:57:01;;;;;;;6.00;2.13;;;19.90;45.30;;;;;;5095474;28;20030;-87
2022/09/06 10:59:33;;;;;;;2.95;1.73;;;20.00;45.50;;;;;;5094605;28;20149;-86
2022/09/06 11:02:31;;;;;;;1.98;1.20;;;20.00;45.70;;;;;;5095856;28;20393;-76
2022/09/06 11:05:04;;;;;;;2.22;1.27;;;20.10;46.10;;;;;;5094412;28;20062;-87
2022/09/06 11:07:33;;;;;;;3.95;1.95;;;20.10;45.80;;;;;;5093970;28;20031;-87
2022/09/06 11:10:04;;;;;;;1.30;1.20;;;20.00;45.90;;;;;;5091265;28;20063;-87
2022/09/06 11:12:53;;;;;;;2.67;1.35;;;20.10;46.10;;;;;;5099078;28;20492;-88
2022/09/06 11:15:22;;;;;;;1.58;1.48;;;20.10;45.90;;;;;;5071257;28;20030;-89
2022/09/06 11:18:08;;;;;;;3.22;1.35;;;20.10;45.20;;;;;;5094542;28;20024;-88
2022/09/06 11:20:40;;;;;;;3.97;1.20;;;20.20;46.20;;;;;;5094375;28;20115;-89
2022/09/06 11:23:36;;;;;;;2.23;1.40;;;20.30;46.20;;;;;;5089946;28;20128;-89
2022/09/06 11:26:24;;;;;;;1.65;1.35;;;20.40;46.20;;;;;;5099362;28;20032;-88
2022/09/06 11:28:55;;;;;;;2.58;1.33;;;20.60;46.40;;;;;;5094049;28;20513;-90
2022/09/06 11:31:57;;;;;;;3.75;1.30;;;20.50;46.10;;;;;;5094290;28;20020;-90
2022/09/06 11:34:26;;;;;;;2.28;1.77;;;20.40;45.20;;;;;;5095308;28;20089;-77
2022/09/06 11:36:55;;;;;;;7.78;1.70;;;20.30;45.00;;;;;;5095137;28;20659;-77
2022/09/06 11:39:37;;;;;;;5.57;1.98;;;20.40;45.40;;;;;;5092873;28;20511;-78
2022/09/06 11:42:09;;;;;;;3.15;2.22;;;20.40;45.60;;;;;;5093687;28;20544;-90
2022/09/06 11:44:53;;;;;;;3.65;1.77;;;20.50;46.10;;;;;;5093735;28;20064;-77
2022/09/06 11:47:46;;;;;;;2.97;1.65;;;20.60;46.00;;;;;;5093941;28;20035;-78
2022/09/06 11:50:25;;;;;;;2.60;1.50;;;20.70;45.20;;;;;;5093526;28;20028;-89
2022/09/06 11:52:54;;;;;;;3.58;1.50;;;20.80;45.40;;;;;;5094926;28;20020;-78
2022/09/06 11:55:23;;;;;;;5.50;1.90;;;20.80;45.30;;;;;;5093091;28;20036;-78
2022/09/06 11:57:55;;;;;;;3.20;1.83;;;20.80;45.70;;;;;;5091464;28;20469;-78
2022/09/06 12:00:22;;;;;;;4.20;1.80;;;20.90;45.40;;;;;;5087858;28;20036;-78
2022/09/06 12:02:49;;;;;;;2.47;1.40;;;20.80;44.60;;;;;;5081984;28;20028;-79
2022/09/06 12:05:25;;;;;;;2.55;1.50;;;20.80;45.10;;;;;;5078098;28;20036;-78
2022/09/06 12:08:11;;;;;;;2.95;1.38;;;20.90;45.40;;;;;;5094269;28;20046;-78
2022/09/06 12:11:04;;;;;;;7.90;1.95;;;21.00;45.00;;;;;;5092219;28;20028;-79
2022/09/06 12:13:44;;;;;;;5.28;1.48;;;20.90;44.70;;;;;;5083927;28;20106;-79
2022/09/06 12:16:11;;;;;;;3.22;1.80;;;21.10;45.10;;;;;;5085448;28;20382;-78
2022/09/06 12:18:46;;;;;;;2.30;1.48;;;21.00;44.70;;;;;;5086014;28;20019;-89
2022/09/06 12:21:30;;;;;;;2.30;1.60;;;20.90;44.40;;;;;;5089585;28;20073;-88
2022/09/06 12:23:56;;;;;;;3.00;1.33;;;20.80;44.80;;;;;;5083422;28;20381;-90
2022/09/06 12:26:48;;;;;;;2.63;1.67;;;20.60;44.80;;;;;;5096838;28;20027;-87
2022/09/06 12:29:14;;;;;;;2.70;1.55;;;20.60;45.10;;;;;;5098217;28;20035;-87
2022/09/06 12:31:44;;;;;;;3.05;1.92;;;20.40;45.60;;;;;;5095010;28;20031;-85
2022/09/06 12:34:20;;;;;;;4.43;2.47;;;20.60;46.40;;;;;;5080011;28;20028;-86
2022/09/06 12:36:55;;;;;;;3.15;1.80;;;20.70;46.40;;;;;;5074665;28;20032;-86
2022/09/06 12:39:21;;;;;;;1.80;1.70;;;20.70;45.90;;;;;;5073496;28;20366;-87
2022/09/06 12:42:02;;;;;;;2.92;2.10;;;20.60;45.30;;;;;;5073200;28;20025;-87
2022/09/06 12:44:37;;;;;;;4.25;2.13;;;20.40;45.80;;;;;;5073347;28;20051;-87
2022/09/06 12:47:23;;;;;;;2.65;1.63;;;20.40;46.30;;;;;;5073159;28;20052;-75
2022/09/06 12:50:13;;;;;;;2.53;1.70;;;20.50;46.80;;;;;;5077210;28;20406;-75
2022/09/06 12:52:44;;;;;;;2.33;1.65;;;20.60;46.40;;;;;;5084533;28;20028;-87
2022/09/06 12:55:18;;;;;;;4.20;2.20;;;20.70;46.10;;;;;;5079586;28;20028;-75
2022/09/06 12:57:50;;;;;;;4.68;2.40;;;20.90;46.80;;;;;;5114123;27;20012;-75
2022/09/06 13:00:17;;;;;;;3.83;2.10;;;21.00;46.20;;;;;;5082824;28;20017;-75
2022/09/06 13:03:21;;;;;;;4.63;1.90;;;21.10;46.30;;;;;;5081660;28;20510;-84
2022/09/06 13:05:47;;;;;;;3.53;2.20;;;21.20;45.90;;;;;;5083616;28;20033;-75
2022/09/06 13:08:18;;;;;;;3.40;1.85;;;21.10;45.60;;;;;;5080595;28;20496;-77